Time;durP1;ratioP1;P1;durP2;ratioP2;P2;SDS_P1;SDS_P2;PMS_P1;PMS_P2;Temp;Humidity;BMP_temperature;BMP_pressure;BME280_temperature;BME280_humidity;BME280_pressure;Samples;Min_cycle;Max_cycle;Signal;HPM_P1;HPM_P2
2023/07/31 00:00:51;;;;;;;9.65;5.32;;;;;;;18.00;69.56;100101.03;10526037;28;20419;-71
2023/07/31 00:05:53;;;;;;;12.57;4.60;;;;;;;17.99;69.81;100103.00;10532607;28;20044;-71
2023/07/31 00:10:56;;;;;;;11.27;4.93;;;;;;;18.11;69.64;100093.88;10525125;28;20427;-70
2023/07/31 00:15:59;;;;;;;12.88;4.85;;;;;;;18.10;69.54;100108.13;10521066;28;20056;-71
2023/07/31 00:21:01;;;;;;;12.18;4.72;;;;;;;17.97;69.67;100112.84;10523068;28;20431;-70
2023/07/31 00:26:03;;;;;;;10.52;4.78;;;;;;;18.01;69.99;100113.75;10531817;28;20052;-71
2023/07/31 00:31:05;;;;;;;11.30;5.28;;;;;;;17.89;70.17;100111.78;10533457;28;20055;-71
2023/07/31 00:36:07;;;;;;;9.18;4.57;;;;;;;18.11;69.93;100112.50;10511272;28;20049;-71
2023/07/31 00:41:10;;;;;;;8.80;4.90;;;;;;;18.08;69.77;100114.84;10524671;28;20535;-71
2023/07/31 00:46:12;;;;;;;11.65;5.22;;;;;;;17.97;70.69;100121.16;10528181;28;20048;-71
2023/07/31 00:51:14;;;;;;;11.80;4.85;;;;;;;17.79;71.14;100123.31;10528584;28;20518;-71
2023/07/31 00:56:16;;;;;;;12.70;5.25;;;;;;;17.69;71.85;100129.28;10489360;28;20041;-71
2023/07/31 01:01:18;;;;;;;9.60;4.72;;;;;;;17.62;72.28;100126.22;10485316;28;20123;-71
2023/07/31 01:06:33;;;;;;;11.93;5.05;;;;;;;17.58;72.21;100126.09;10467105;28;20045;-71
2023/07/31 01:11:43;;;;;;;8.73;4.40;;;;;;;17.51;72.63;100125.00;10472407;28;20048;-71
2023/07/31 01:16:45;;;;;;;10.75;4.38;;;;;;;17.46;72.82;100126.84;10464810;28;20040;-71
2023/07/31 01:22:17;;;;;;;8.88;4.65;;;;;;;17.32;73.21;100128.25;10467459;28;20040;-71
2023/07/31 01:27:25;;;;;;;10.40;5.22;;;;;;;17.23;74.00;100128.34;10433761;28;20049;-71
2023/07/31 01:32:28;;;;;;;12.97;5.47;;;;;;;17.12;74.35;100119.63;10455017;28;20403;-71
2023/07/31 01:37:31;;;;;;;10.13;4.93;;;;;;;17.10;74.89;100118.34;10447141;28;20573;-71
2023/07/31 01:42:33;;;;;;;6.55;4.80;;;;;;;17.03;75.09;100118.88;10436394;28;20040;-71
2023/07/31 01:47:35;;;;;;;8.63;4.85;;;;;;;17.04;75.07;100114.16;10477651;28;20048;-71
2023/07/31 01:52:37;;;;;;;6.70;4.18;;;;;;;17.09;75.22;100113.94;10480994;28;20044;-72
2023/07/31 01:57:41;;;;;;;8.80;4.57;;;;;;;17.31;74.17;100110.00;10524494;28;20051;-72
2023/07/31 02:02:44;;;;;;;8.95;4.95;;;;;;;17.32;74.08;100108.84;10498840;28;20047;-71
2023/07/31 02:07:46;;;;;;;8.30;4.53;;;;;;;17.74;73.16;100104.91;10522969;28;20048;-72
2023/07/31 02:12:48;;;;;;;10.35;5.22;;;;;;;18.37;70.82;100108.25;10522041;28;20048;-71
2023/07/31 02:17:50;;;;;;;8.23;4.80;;;;;;;18.68;69.28;100104.13;10507369;28;20435;-71
2023/07/31 02:22:52;;;;;;;11.77;5.30;;;;;;;18.52;69.50;100098.41;10521385;28;20053;-71
2023/07/31 02:27:55;;;;;;;10.27;5.25;;;;;;;19.00;68.53;100094.00;10504942;28;20055;-71
2023/07/31 02:32:58;;;;;;;11.88;5.28;;;;;;;19.62;65.87;100095.44;10522221;28;20044;-71
2023/07/31 02:38:00;;;;;;;9.25;4.93;;;;;;;20.31;64.20;100096.88;10524065;28;20037;-72
2023/07/31 02:43:02;;;;;;;11.40;4.78;;;;;;;20.74;62.14;100109.91;10518165;28;20040;-72
2023/07/31 02:48:04;;;;;;;7.97;4.68;;;;;;;20.88;61.49;100105.84;10491240;28;20041;-72
2023/07/31 02:53:07;;;;;;;6.80;5.00;;;;;;;21.44;60.05;100092.34;10522299;28;20068;-72
2023/07/31 02:58:10;;;;;;;10.85;4.82;;;;;;;21.93;58.73;100086.09;10520265;28;20036;-72
2023/07/31 03:03:13;;;;;;;8.15;4.20;;;;;;;21.65;58.44;100087.16;10516367;28;20044;-71
2023/07/31 03:08:15;;;;;;;10.88;5.80;;;;;;;22.25;56.80;100086.72;10500615;28;20419;-71
2023/07/31 03:13:17;;;;;;;8.68;4.47;;;;;;;22.82;55.49;100088.44;10511536;28;20048;-72
2023/07/31 03:18:19;;;;;;;6.53;5.07;;;;;;;22.85;55.06;100075.69;10519073;28;20534;-71
2023/07/31 03:23:21;;;;;;;7.63;4.15;;;;;;;23.56;53.94;100079.41;10500488;28;20048;-72
2023/07/31 03:28:23;;;;;;;8.27;4.57;;;;;;;24.01;51.74;100075.53;10507249;28;20505;-71
2023/07/31 03:33:26;;;;;;;6.53;4.40;;;;;;;24.24;51.55;100080.94;10513752;28;20045;-71
2023/07/31 03:38:28;;;;;;;7.18;5.13;;;;;;;24.53;50.04;100072.78;10528566;28;20055;-72
2023/07/31 03:43:30;;;;;;;7.53;4.47;;;;;;;24.47;50.38;100068.72;10528119;28;20517;-72
2023/07/31 03:48:32;;;;;;;5.63;4.20;;;;;;;24.59;50.39;100068.41;10519024;28;20041;-72
2023/07/31 03:53:34;;;;;;;7.85;4.82;;;;;;;25.31;47.80;100070.47;10526896;28;20137;-71
2023/07/31 03:58:36;;;;;;;7.13;4.32;;;;;;;24.94;48.70;100071.44;10523222;28;20041;-71
2023/07/31 04:03:39;;;;;;;7.88;4.13;;;;;;;24.94;48.98;100070.66;10503115;28;20040;-71
2023/07/31 04:08:41;;;;;;;7.35;4.60;;;;;;;25.85;46.93;100074.28;10510268;28;20044;-71
2023/07/31 04:13:43;;;;;;;6.88;4.22;;;;;;;26.34;44.65;100065.09;10527590;28;20076;-72
2023/07/31 04:18:45;;;;;;;10.80;4.07;;;;;;;26.66;43.45;100056.66;10516195;28;20028;-73
2023/07/31 04:23:47;;;;;;;8.27;3.92;;;;;;;26.34;43.77;100055.84;10504010;28;20045;-72
2023/07/31 04:28:50;;;;;;;5.53;3.67;;;;;;;27.05;42.42;100050.16;10530831;28;20048;-72
2023/07/31 04:33:52;;;;;;;4.93;3.00;;;;;;;27.25;42.14;100056.13;10523932;28;20221;-72
2023/07/31 04:38:54;;;;;;;5.93;3.30;;;;;;;27.07;42.27;100047.72;10531184;28;20040;-72
2023/07/31 04:43:56;;;;;;;7.68;2.95;;;;;;;24.84;45.75;100049.75;10527563;28;20048;-70
2023/07/31 04:48:59;;;;;;;3.42;2.65;;;;;;;25.70;43.85;100050.97;10507783;28;20040;-72
2023/07/31 04:54:01;;;;;;;2.72;2.17;;;;;;;25.81;43.72;100050.97;10529100;28;20079;-72
2023/07/31 04:59:03;;;;;;;2.63;2.40;;;;;;;26.89;40.54;100044.13;10489621;28;20102;-72
2023/07/31 05:04:05;;;;;;;3.17;2.20;;;;;;;27.16;40.09;100047.31;10490171;28;20041;-71
2023/07/31 05:09:09;;;;;;;3.10;2.35;;;;;;;28.53;38.15;100042.00;10530516;28;20049;-71
2023/07/31 05:14:11;;;;;;;5.38;2.17;;;;;;;28.74;36.67;100041.00;10530135;28;20044;-72
2023/07/31 05:19:14;;;;;;;3.55;1.95;;;;;;;28.85;36.46;100035.25;10526935;28;20055;-73
2023/07/31 05:24:16;;;;;;;2.80;1.75;;;;;;;28.59;36.36;100035.91;10528343;28;20052;-71
2023/07/31 05:29:18;;;;;;;2.67;1.80;;;;;;;28.17;37.01;100046.34;10528651;28;20048;-72
2023/07/31 05:34:20;;;;;;;2.35;1.88;;;;;;;28.22;37.64;100038.22;10507583;28;20414;-72
2023/07/31 05:39:23;;;;;;;2.58;1.77;;;;;;;27.80;37.95;100038.56;10497744;28;20056;-73
2023/07/31 05:44:25;;;;;;;2.38;1.60;;;;;;;28.58;37.75;100037.13;10511198;28;20079;-72
2023/07/31 05:49:27;;;;;;;3.35;2.05;;;;;;;27.69;38.75;100032.16;10529676;28;20410;-73
2023/07/31 05:54:29;;;;;;;2.08;1.75;;;;;;;27.03;40.77;100030.03;10520652;28;20458;-72
2023/07/31 05:59:32;;;;;;;2.33;1.90;;;;;;;27.11;41.04;100030.84;10499266;28;20066;-75
2023/07/31 06:04:35;;;;;;;2.25;2.05;;;;;;;27.72;40.59;100040.59;10510305;28;20506;-73
2023/07/31 06:09:37;;;;;;;2.40;1.98;;;;;;;29.70;36.69;100028.56;10527518;28;20059;-73
2023/07/31 06:14:40;;;;;;;2.83;2.00;;;;;;;30.16;35.52;100031.91;10534232;28;20048;-72
2023/07/31 06:19:42;;;;;;;4.00;1.92;;;;;;;30.23;35.82;100034.63;10470927;28;20408;-72
2023/07/31 06:24:44;;;;;;;4.00;2.10;;;;;;;28.95;37.36;100030.69;10491636;28;20048;-74
2023/07/31 06:29:47;;;;;;;3.58;1.83;;;;;;;28.40;37.79;100021.16;10530852;28;20037;-73
2023/07/31 06:34:50;;;;;;;2.58;2.00;;;;;;;27.58;39.82;100032.19;10526887;28;20060;-73
2023/07/31 06:39:52;;;;;;;2.60;2.00;;;;;;;29.00;36.74;100033.09;10520491;28;20036;-72
2023/07/31 06:44:54;;;;;;;4.22;2.15;;;;;;;30.28;35.63;100032.09;10503310;28;20052;-73
2023/07/31 06:49:56;;;;;;;2.15;1.95;;;;;;;30.35;35.42;100027.53;10521736;28;20041;-73
2023/07/31 06:55:19;;;;;;;3.13;1.92;;;;;;;29.02;37.68;100033.47;10520446;28;20060;-73
2023/07/31 07:00:22;;;;;;;1.77;1.33;;;;;;;28.45;35.98;100017.88;10526795;28;20052;-73
2023/07/31 07:05:25;;;;;;;2.35;1.05;;;;;;;28.14;34.39;100018.97;10527067;28;20040;-73
2023/07/31 07:10:27;;;;;;;2.53;1.27;;;;;;;27.93;35.06;100025.53;10527582;28;20045;-72
2023/07/31 07:15:29;;;;;;;1.35;1.00;;;;;;;27.96;35.36;100029.59;10540510;28;20434;-73
2023/07/31 07:20:31;;;;;;;2.20;1.33;;;;;;;27.53;37.26;100024.19;10541159;28;20052;-72
2023/07/31 07:25:37;;;;;;;2.33;1.45;;;;;;;27.43;36.63;100030.69;10539791;28;20537;-72
2023/07/31 07:30:39;;;;;;;3.80;1.55;;;;;;;26.50;38.80;100028.13;10541169;28;20055;-74
2023/07/31 07:35:42;;;;;;;4.70;1.33;;;;;;;26.36;38.35;100030.94;10527538;28;20052;-74
2023/07/31 07:40:46;;;;;;;2.33;1.40;;;;;;;27.03;38.11;100027.22;10544340;28;20419;-73
2023/07/31 07:45:49;;;;;;;1.50;1.40;;;;;;;26.62;39.22;100022.09;10577572;28;20130;-74
2023/07/31 07:50:51;;;;;;;2.13;1.60;;;;;;;26.68;39.20;100020.47;10582284;28;20040;-74
2023/07/31 07:55:53;;;;;;;1.58;1.30;;;;;;;26.42;39.83;100018.09;10535455;28;20521;-74
2023/07/31 08:00:56;;;;;;;1.30;1.20;;;;;;;26.15;40.08;100031.72;10537716;28;20630;-74
2023/07/31 08:05:59;;;;;;;1.50;1.40;;;;;;;26.27;40.18;100031.34;10538505;28;20926;-74
2023/07/31 08:11:02;;;;;;;2.67;1.63;;;;;;;25.98;40.28;100038.97;10521934;28;20043;-74
2023/07/31 08:16:04;;;;;;;2.38;1.50;;;;;;;26.29;40.74;100036.56;10538631;28;20437;-73
2023/07/31 08:21:06;;;;;;;2.83;1.70;;;;;;;25.29;41.89;100041.97;10531410;28;20429;-73
2023/07/31 08:26:17;;;;;;;2.75;1.50;;;;;;;25.29;43.01;100053.19;10557719;28;20043;-74
2023/07/31 08:31:20;;;;;;;3.13;1.80;;;;;;;25.43;42.99;100044.84;10555971;28;20055;-73
2023/07/31 08:36:22;;;;;;;2.90;2.05;;;;;;;25.60;42.87;100040.47;10532496;28;20568;-74
2023/07/31 08:41:25;;;;;;;2.33;2.05;;;;;;;25.89;42.33;100051.81;10521613;28;20045;-74
2023/07/31 08:46:27;;;;;;;2.50;1.65;;;;;;;27.29;39.20;100038.00;10531641;28;20049;-75
2023/07/31 08:51:30;;;;;;;3.10;1.90;;;;;;;28.26;36.83;100049.50;10514142;28;20049;-74
2023/07/31 08:56:32;;;;;;;2.33;1.90;;;;;;;28.43;36.68;100036.47;10550969;28;20063;-72
2023/07/31 09:01:38;;;;;;;2.28;1.80;;;;;;;27.60;38.82;100046.69;10514159;28;20044;-72
2023/07/31 09:06:42;;;;;;;4.13;1.98;;;;;;;27.80;38.12;100039.34;10542555;28;20036;-72
2023/07/31 09:11:44;;;;;;;1.52;1.42;;;;;;;27.38;37.69;100050.81;10531849;28;20400;-72
2023/07/31 09:16:58;;;;;;;2.47;1.67;;;;;;;26.94;38.74;100049.38;10512864;28;20511;-73
2023/07/31 09:22:00;;;;;;;2.42;1.60;;;;;;;26.94;37.88;100055.78;10511770;28;20044;-73
2023/07/31 09:27:02;;;;;;;2.78;1.80;;;;;;;25.89;40.00;100052.63;10502112;28;20499;-72
2023/07/31 09:32:15;;;;;;;2.10;1.70;;;;;;;26.04;39.66;100057.06;10511654;28;20442;-72
2023/07/31 09:37:18;;;;;;;4.40;1.70;;;;;;;25.78;39.28;100063.81;10489510;28;20052;-73
2023/07/31 09:42:26;;;;;;;2.47;1.85;;;;;;;25.99;40.15;100046.19;10488631;28;20514;-73
2023/07/31 09:47:30;;;;;;;1.77;1.48;;;;;;;25.36;39.40;100055.25;10527694;28;20037;-73
2023/07/31 09:52:32;;;;;;;2.17;1.58;;;;;;;25.11;41.23;100038.28;10512254;28;20045;-73
2023/07/31 09:57:40;;;;;;;2.45;1.40;;;;;;;25.11;40.93;100041.09;10511975;28;20060;-73
2023/07/31 10:02:45;;;;;;;1.42;1.30;;;;;;;25.32;39.71;100029.13;10525385;28;20040;-73
2023/07/31 10:07:57;;;;;;;2.42;1.58;;;;;;;24.99;40.05;100035.78;10527262;28;20048;-73
2023/07/31 10:12:59;;;;;;;3.30;1.50;;;;;;;25.25;40.12;100027.13;10497298;28;20033;-75
2023/07/31 10:18:02;;;;;;;1.83;1.50;;;;;;;24.98;41.52;100034.97;10511333;28;20056;-76
2023/07/31 10:23:05;;;;;;;2.95;1.30;;;;;;;25.19;40.40;100031.53;10498394;28;20056;-80
2023/07/31 10:28:08;;;;;;;2.40;1.60;;;;;;;25.67;40.06;100032.03;10511160;28;20043;-79
2023/07/31 10:33:11;;;;;;;2.10;1.42;;;;;;;25.76;39.09;100028.91;10504766;28;20041;-79
2023/07/31 10:38:13;;;;;;;1.85;1.30;;;;;;;26.20;39.21;100022.09;10528374;28;20532;-79
2023/07/31 10:43:27;;;;;;;2.97;1.73;;;;;;;25.98;38.80;100027.72;10518713;28;20041;-80
2023/07/31 10:48:33;;;;;;;1.60;1.50;;;;;;;26.08;39.20;100021.31;10488227;28;20502;-78
2023/07/31 10:53:36;;;;;;;1.50;1.30;;;;;;;26.05;39.69;100024.91;10506001;28;20051;-78
2023/07/31 10:58:38;;;;;;;2.85;2.08;;;;;;;25.92;41.11;100026.50;10482092;28;20045;-78
2023/07/31 11:03:49;;;;;;;2.72;1.90;;;;;;;24.90;41.82;100013.69;10503637;28;20056;-77
2023/07/31 11:08:51;;;;;;;3.63;1.77;;;;;;;25.41;41.41;100005.09;10507394;28;20057;-78
2023/07/31 11:13:54;;;;;;;2.90;1.80;;;;;;;25.41;42.07;100007.91;10492597;28;20037;-77
2023/07/31 11:18:56;;;;;;;2.20;1.77;;;;;;;25.45;42.23;100005.09;10504922;28;20557;-77
2023/07/31 11:23:58;;;;;;;2.05;1.80;;;;;;;25.61;41.76;100007.56;10495371;28;20048;-78
2023/07/31 11:29:00;;;;;;;2.75;1.65;;;;;;;25.83;39.47;100003.59;10508948;28;20053;-78
2023/07/31 11:34:06;;;;;;;1.98;1.45;;;;;;;25.97;38.40;100000.81;10512548;28;20406;-77
2023/07/31 11:39:10;;;;;;;2.42;1.30;;;;;;;25.69;37.84;99990.34;10478343;28;20033;-75
2023/07/31 11:44:12;;;;;;;1.98;1.52;;;;;;;25.64;38.81;99987.09;10499606;28;20048;-76
2023/07/31 11:49:15;;;;;;;3.67;1.70;;;;;;;25.61;37.88;99985.88;10520231;28;20047;-74
2023/07/31 11:54:17;;;;;;;3.05;1.70;;;;;;;25.71;37.49;99987.16;10520325;28;20421;-75
2023/07/31 11:59:20;;;;;;;1.90;1.70;;;;;;;25.47;38.14;99988.66;10520752;28;20040;-75
2023/07/31 12:04:24;;;;;;;4.22;1.48;;;;;;;25.62;38.97;99969.81;10501982;28;20033;-77
2023/07/31 12:09:26;;;;;;;2.40;1.45;;;;;;;25.56;37.68;99983.47;10471771;28;20041;-76
2023/07/31 12:14:29;;;;;;;3.15;1.80;;;;;;;25.51;38.95;99981.03;10512524;28;20052;-75
2023/07/31 12:19:31;;;;;;;2.72;1.77;;;;;;;25.62;37.97;99983.88;10522444;28;20056;-76
2023/07/31 12:24:34;;;;;;;2.72;1.55;;;;;;;25.85;38.53;99984.31;10536733;28;20028;-76
2023/07/31 12:29:36;;;;;;;1.90;1.70;;;;;;;25.72;38.23;99981.13;10509001;28;20037;-74
2023/07/31 12:34:43;;;;;;;3.33;1.80;;;;;;;25.20;39.31;99971.34;10524073;28;20118;-75
2023/07/31 12:39:45;;;;;;;;;;;;;;;25.40;39.89;99964.19;10520374;28;20057;-75
2023/07/31 12:44:47;;;;;;;4.35;2.10;;;;;;;25.18;40.08;99968.94;10525958;28;20408;-75
2023/07/31 12:49:49;;;;;;;3.78;2.28;;;;;;;25.03;39.81;99956.06;10532047;28;20653;-75
2023/07/31 12:54:51;;;;;;;1.67;1.58;;;;;;;25.38;39.16;99954.53;10524137;28;20447;-75
2023/07/31 12:59:53;;;;;;;2.63;1.98;;;;;;;25.61;39.63;99940.13;10525054;28;20052;-75
2023/07/31 13:04:56;;;;;;;3.08;1.70;;;;;;;25.60;38.55;99944.13;10542535;28;20045;-75
2023/07/31 13:09:58;;;;;;;2.67;1.63;;;;;;;25.61;39.23;99945.75;10524703;28;20052;-76
2023/07/31 13:15:00;;;;;;;3.30;1.75;;;;;;;25.82;38.66;99940.16;10530557;28;20572;-75
2023/07/31 13:20:03;;;;;;;2.78;2.08;;;;;;;25.83;38.20;99953.00;10529138;28;20051;-75
2023/07/31 13:25:06;;;;;;;3.60;1.85;;;;;;;25.93;38.83;99940.16;10527980;28;20051;-75
2023/07/31 13:30:08;;;;;;;3.65;1.50;;;;;;;25.63;39.97;99951.75;10525475;28;20045;-76
2023/07/31 13:35:11;;;;;;;3.13;1.63;;;;;;;25.11;42.00;99956.88;10527416;28;20037;-75
2023/07/31 13:40:14;;;;;;;2.40;1.92;;;;;;;25.26;42.96;99958.53;10509368;28;20048;-75
2023/07/31 13:45:16;;;;;;;3.40;2.58;;;;;;;24.98;46.03;99958.38;10511988;28;20656;-74
2023/07/31 13:50:20;;;;;;;3.90;2.35;;;;;;;24.38;49.05;99954.09;10527780;28;20024;-75
2023/07/31 13:55:23;;;;;;;5.10;2.40;;;;;;;24.03;49.74;99946.22;10525659;28;20064;-75
2023/07/31 14:00:25;;;;;;;6.30;2.30;;;;;;;24.01;51.18;99957.00;10523832;28;20037;-75
2023/07/31 14:05:27;;;;;;;6.05;3.10;;;;;;;23.59;52.78;99979.81;10524438;28;20039;-77
2023/07/31 14:10:29;;;;;;;3.75;2.83;;;;;;;23.08;55.85;100005.63;10494265;28;20525;-75
2023/07/31 14:15:32;;;;;;;4.82;2.70;;;;;;;21.94;62.90;100015.88;10528645;28;20063;-75
2023/07/31 14:20:34;;;;;;;6.82;3.10;;;;;;;21.08;68.32;100007.84;10506029;28;20045;-76
2023/07/31 14:25:36;;;;;;;6.72;3.03;;;;;;;21.01;70.79;99993.78;10525566;28;20052;-75
2023/07/31 14:30:38;;;;;;;5.15;3.50;;;;;;;20.82;73.40;99990.16;10524065;28;20041;-73
2023/07/31 14:35:40;;;;;;;5.38;3.13;;;;;;;20.14;75.39;99997.78;10521643;28;20133;-74
2023/07/31 14:40:42;;;;;;;5.40;3.33;;;;;;;20.03;75.88;100015.38;10501726;28;20056;-76
2023/07/31 14:45:46;;;;;;;5.22;3.15;;;;;;;19.83;76.04;100020.84;10486143;28;20131;-75
2023/07/31 14:50:48;;;;;;;5.00;2.88;;;;;;;19.96;76.29;99993.75;10512707;28;20063;-76
2023/07/31 14:55:50;;;;;;;7.97;3.03;;;;;;;20.03;76.97;99988.34;10503620;28;20052;-77
2023/07/31 15:00:52;;;;;;;4.68;2.35;;;;;;;20.13;74.62;99987.78;10518706;28;20515;-76
2023/07/31 15:05:56;;;;;;;5.45;2.60;;;;;;;20.41;72.11;99982.09;10488175;28;20067;-74
2023/07/31 15:10:58;;;;;;;5.45;2.70;;;;;;;20.60;70.54;99974.94;10516867;28;20044;-76
2023/07/31 15:16:01;;;;;;;4.00;2.50;;;;;;;20.68;71.13;99985.91;10494666;28;20040;-75
2023/07/31 15:21:05;;;;;;;5.88;2.70;;;;;;;20.51;71.61;99983.53;10516265;28;20039;-76
2023/07/31 15:26:33;;;;;;;4.10;2.72;;;;;;;20.69;71.36;99990.31;10513606;28;20033;-76
2023/07/31 15:31:35;;;;;;;6.68;3.25;;;;;;;20.83;70.90;99991.78;10540180;28;20035;-73
2023/07/31 15:36:37;;;;;;;6.22;2.88;;;;;;;20.69;69.92;99983.91;10506001;28;20055;-73
2023/07/31 15:41:40;;;;;;;4.43;2.00;;;;;;;20.81;69.54;99994.09;10530607;28;20037;-75
2023/07/31 15:46:43;;;;;;;4.93;2.80;;;;;;;20.84;67.93;99998.97;10533658;28;20044;-74
2023/07/31 15:51:46;;;;;;;6.78;3.30;;;;;;;20.47;70.50;100055.06;10528150;28;20040;-77
2023/07/31 15:56:48;;;;;;;7.63;3.30;;;;;;;20.76;72.14;100070.50;10519642;28;20048;-75
2023/07/31 16:01:55;;;;;;;2.00;1.65;;;;;;;18.97;77.47;100075.25;10520689;28;20047;-75
2023/07/31 16:06:57;;;;;;;3.28;2.10;;;;;;;17.61;84.37;100080.19;10524680;28;20033;-74
2023/07/31 16:12:00;;;;;;;4.53;2.10;;;;;;;17.24;87.07;100074.50;10497933;28;20044;-75
2023/07/31 16:17:02;;;;;;;3.47;2.20;;;;;;;17.04;87.60;100064.25;10501396;28;20628;-78
2023/07/31 16:22:05;;;;;;;4.28;2.40;;;;;;;17.26;87.50;100076.94;10530737;28;20665;-76
2023/07/31 16:27:07;;;;;;;4.97;2.65;;;;;;;17.56;87.33;100081.25;10515037;28;20037;-76
2023/07/31 16:32:09;;;;;;;4.70;2.85;;;;;;;17.86;86.96;100075.56;10512313;28;20392;-75
2023/07/31 16:37:12;;;;;;;4.75;2.58;;;;;;;18.15;87.04;100080.94;10522215;28;20051;-75
2023/07/31 16:42:14;;;;;;;6.32;2.67;;;;;;;18.03;89.43;100067.84;10509942;28;20045;-77
2023/07/31 16:47:17;;;;;;;5.72;3.10;;;;;;;18.10;87.55;100070.06;10499556;28;20040;-76
2023/07/31 16:52:19;;;;;;;4.40;3.03;;;;;;;18.08;87.63;100062.06;10522676;28;20047;-76
2023/07/31 16:57:24;;;;;;;5.30;3.50;;;;;;;18.12;87.85;100067.75;10503530;28;20081;-75
2023/07/31 17:02:26;;;;;;;6.05;3.22;;;;;;;18.08;87.87;100061.25;10528094;28;20040;-77
2023/07/31 17:07:29;;;;;;;6.07;3.45;;;;;;;18.19;87.09;100070.75;10522952;28;20503;-79
2023/07/31 17:12:31;;;;;;;7.38;3.85;;;;;;;17.99;88.60;100072.47;10520037;28;20048;-79
2023/07/31 17:17:33;;;;;;;5.13;3.90;;;;;;;17.85;89.60;100077.50;10521101;28;20041;-77
2023/07/31 17:22:35;;;;;;;4.97;2.70;;;;;;;17.74;87.92;100063.28;10530553;28;20040;-78
2023/07/31 17:27:38;;;;;;;3.65;2.60;;;;;;;17.81;86.76;100053.56;10524407;28;20045;-77
2023/07/31 17:32:40;;;;;;;4.82;3.20;;;;;;;17.93;86.22;100048.88;10522035;28;20497;-82
2023/07/31 17:37:43;;;;;;;2.85;2.63;;;;;;;17.83;85.56;100051.25;10495228;28;20056;-81
2023/07/31 17:42:45;;;;;;;3.30;2.20;;;;;;;17.88;84.14;100059.38;10496185;28;20422;-79
2023/07/31 17:47:47;;;;;;;2.35;2.15;;;;;;;17.91;81.89;100051.19;10504686;28;20037;-79
2023/07/31 17:52:49;;;;;;;5.72;2.75;;;;;;;17.92;81.48;100043.66;10524632;28;20048;-78
2023/07/31 17:57:51;;;;;;;4.50;2.20;;;;;;;18.01;81.78;100047.13;10518826;28;20049;-76
2023/07/31 18:02:54;;;;;;;4.18;2.55;;;;;;;18.01;80.96;100042.38;10509521;28;20049;-78
2023/07/31 18:07:56;;;;;;;3.85;2.15;;;;;;;18.27;80.39;100039.28;10502649;28;20036;-77
2023/07/31 18:12:58;;;;;;;7.05;2.92;;;;;;;18.28;80.16;100035.34;10514554;28;20426;-78
2023/07/31 18:18:00;;;;;;;3.78;2.45;;;;;;;18.10;81.36;100039.50;10517160;28;20063;-79
2023/07/31 18:23:03;;;;;;;4.00;2.55;;;;;;;18.16;81.30;100031.75;10517505;28;20060;-80
2023/07/31 18:28:05;;;;;;;8.52;3.42;;;;;;;18.28;79.80;100024.25;10514594;28;20036;-80
2023/07/31 18:33:07;;;;;;;4.38;2.40;;;;;;;18.32;79.33;100018.78;10497744;28;20049;-81
2023/07/31 18:38:10;;;;;;;6.57;3.17;;;;;;;18.25;79.80;100024.94;10525771;28;20406;-82
2023/07/31 18:43:13;;;;;;;4.63;3.13;;;;;;;18.18;80.66;100041.34;10508024;28;20048;-83
2023/07/31 18:48:15;;;;;;;5.47;3.20;;;;;;;18.79;78.97;100041.34;10527919;28;20051;-78
2023/07/31 18:53:18;;;;;;;3.60;2.63;;;;;;;18.94;79.31;100039.81;10495914;28;20503;-79
2023/07/31 18:58:20;;;;;;;5.80;2.90;;;;;;;19.18;79.30;100038.91;10492027;28;20344;-77
2023/07/31 19:03:24;;;;;;;4.22;3.00;;;;;;;19.29;78.93;100045.59;10521941;28;20032;-77
2023/07/31 19:08:26;;;;;;;4.88;3.10;;;;;;;19.34;79.09;100033.41;10502837;28;20041;-72
2023/07/31 19:13:29;;;;;;;5.57;3.30;;;;;;;19.13;80.25;100037.19;10516950;28;20048;-72
2023/07/31 19:18:31;;;;;;;5.88;3.20;;;;;;;19.15;78.87;100031.28;10513559;28;20519;-71
2023/07/31 19:23:35;;;;;;;5.25;3.20;;;;;;;19.15;77.63;100034.06;10515592;28;20040;-73
2023/07/31 19:28:37;;;;;;;4.82;3.25;;;;;;;18.92;77.44;100031.00;10518131;28;20040;-71
2023/07/31 19:33:39;;;;;;;4.55;2.53;;;;;;;18.82;76.01;100023.16;10506072;28;20056;-72
2023/07/31 19:38:41;;;;;;;2.28;2.00;;;;;;;18.96;76.02;100027.16;10529631;28;20041;-71
2023/07/31 19:43:44;;;;;;;5.80;3.08;;;;;;;19.17;76.55;100031.72;10515259;28;20039;-72
2023/07/31 19:48:46;;;;;;;5.32;2.70;;;;;;;19.10;76.98;100023.19;10506708;28;20038;-72
2023/07/31 19:53:48;;;;;;;5.68;3.25;;;;;;;19.36;75.38;100026.31;10522558;28;20338;-73
2023/07/31 19:58:50;;;;;;;4.68;3.03;;;;;;;19.29;76.57;100034.47;10497637;28;20056;-73
2023/07/31 20:03:53;;;;;;;4.65;2.83;;;;;;;19.06;78.49;100025.03;10520209;28;20059;-71
2023/07/31 20:08:55;;;;;;;5.93;3.00;;;;;;;19.14;78.22;100026.88;10523464;28;20049;-72
2023/07/31 20:13:57;;;;;;;4.88;2.83;;;;;;;19.14;78.51;100032.44;10521656;28;20032;-78
2023/07/31 20:19:00;;;;;;;3.60;2.67;;;;;;;19.15;78.87;100039.63;10526685;28;20044;-79
2023/07/31 20:24:02;;;;;;;5.55;2.72;;;;;;;18.94;80.89;100045.38;10503938;28;20070;-78
2023/07/31 20:29:04;;;;;;;4.80;3.30;;;;;;;18.51;82.88;100046.78;10512037;28;20036;-79
2023/07/31 20:34:07;;;;;;;5.32;3.33;;;;;;;18.25;85.04;100055.50;10523188;28;20037;-81
2023/07/31 20:39:09;;;;;;;5.88;3.72;;;;;;;18.26;85.24;100065.44;10511679;28;20064;-77
2023/07/31 20:44:11;;;;;;;4.32;3.17;;;;;;;18.29;85.24;100061.97;10509133;28;20036;-78
2023/07/31 20:49:13;;;;;;;5.65;4.47;;;;;;;18.36;85.43;100047.50;10519062;28;20040;-77
2023/07/31 20:54:16;;;;;;;7.57;4.15;;;;;;;18.23;86.45;100059.78;10500182;28;20044;-77
2023/07/31 20:59:19;;;;;;;6.10;3.58;;;;;;;18.15;87.57;100058.72;10525608;28;20415;-76
2023/07/31 21:04:21;;;;;;;6.72;3.83;;;;;;;18.18;88.06;100052.47;10527219;28;20407;-76
2023/07/31 21:09:23;;;;;;;5.50;3.95;;;;;;;18.13;88.13;100049.13;10521334;28;20047;-77
2023/07/31 21:14:25;;;;;;;6.20;4.47;;;;;;;18.04;89.17;100046.44;10527837;28;20521;-78
2023/07/31 21:19:28;;;;;;;6.50;3.97;;;;;;;18.16;88.39;100040.09;10526605;28;20601;-77
2023/07/31 21:24:30;;;;;;;6.63;4.10;;;;;;;17.96;89.76;100044.59;10485266;28;20043;-77
2023/07/31 21:29:32;;;;;;;9.13;4.38;;;;;;;18.08;89.50;100052.94;10526520;28;20044;-78
2023/07/31 21:34:34;;;;;;;7.28;4.38;;;;;;;18.00;89.55;100056.63;10527969;28;20438;-78
2023/07/31 21:39:39;;;;;;;6.25;4.45;;;;;;;18.06;89.72;100058.03;10497544;28;20048;-79
2023/07/31 21:44:42;;;;;;;12.68;6.25;;;;;;;18.06;89.05;100055.25;10516450;28;20048;-76
2023/07/31 21:49:44;;;;;;;6.72;4.78;;;;;;;18.07;89.57;100059.66;10520613;28;20045;-76
2023/07/31 21:54:46;;;;;;;8.82;4.78;;;;;;;18.10;89.69;100056.19;10488463;28;20098;-74
2023/07/31 21:59:48;;;;;;;7.28;4.75;;;;;;;18.22;89.09;100045.09;10520911;28;20037;-76
2023/07/31 22:04:50;;;;;;;5.78;4.53;;;;;;;18.02;89.53;100041.22;10510872;28;20037;-78
2023/07/31 22:09:53;;;;;;;7.13;4.95;;;;;;;18.14;89.25;100048.75;10527675;28;20045;-78
2023/07/31 22:14:55;;;;;;;6.78;4.38;;;;;;;18.23;88.77;100045.88;10510648;28;20063;-71
2023/07/31 22:19:57;;;;;;;10.55;5.15;;;;;;;18.20;88.32;100049.34;10507254;28;20051;-76
2023/07/31 22:25:00;;;;;;;7.63;5.53;;;;;;;18.07;89.14;100054.91;10507665;28;20642;-77
2023/07/31 22:30:02;;;;;;;6.45;5.15;;;;;;;18.10;89.14;100044.25;10523509;28;20449;-76
2023/07/31 22:35:05;;;;;;;7.40;4.50;;;;;;;18.00;88.76;100051.06;10524496;28;20115;-76
2023/07/31 22:40:07;;;;;;;7.18;5.10;;;;;;;18.24;88.29;100053.06;10526747;28;20041;-76
2023/07/31 22:45:10;;;;;;;6.85;5.40;;;;;;;18.26;88.08;100054.34;10506437;28;20052;-76
2023/07/31 22:50:12;;;;;;;8.00;5.03;;;;;;;18.25;88.30;100035.25;10534694;28;20410;-75
2023/07/31 22:55:14;;;;;;;7.28;4.82;;;;;;;18.31;87.27;100040.22;10521476;28;20037;-75
2023/07/31 23:00:16;;;;;;;9.00;5.43;;;;;;;18.22;87.55;100041.47;10520589;28;20037;-73
2023/07/31 23:05:18;;;;;;;8.35;5.40;;;;;;;17.92;89.00;100043.66;10517339;28;20037;-74
2023/07/31 23:10:21;;;;;;;8.52;5.53;;;;;;;18.27;87.92;100050.41;10520101;28;20474;-76